Telford, United Kingdom
Current Conditions -  °F | °C
As of 9:50 PM on Sunday 25 Jan 2015 (Local Time) from EGOS Reporting Station
Broken Clouds Broken Clouds  
Wind Chill: 10°   Ceiling: 1400
Heat Index: 10°   Visibility: 6mi
Dew Point:   Wind: 14mph
Humidity: 87%   Direction: 230°SW
Pressure: 30.18"   Gusts: NA
Location:  52.68°N, 2.45°W
Report Text: EGOS 252150Z AUTO 23012KT 9999 BKN014/// BKN070/// 10/08 Q1022
Loading
Personal Weather Stations






























Interactive Weather Map New forecast layout! Learn more

10-Day Weather Forecast

Advertisements
Track Severe Weather on mobile